Vass, North Carolina
Current Conditions -  °F | °C
As of 9:15 AM on Saturday 20 Dec 2014 (Local Time) from KSOP Reporting Station
Overcast Overcast  
Wind Chill: 33°   Ceiling: 7000
Heat Index: 37°   Visibility: 10mi
Dew Point: 32°   Wind: 6mph
Humidity: 81%   Direction: 50°NE
Pressure: 30.27"   Gusts: NA
Location:  35.26°N, 79.28°W
Report Text: KSOP 201415Z AUTO 05005KT 10SM BKN070 OVC080 03/00 A3027 RMK AO1
Loading
Personal Weather Stations






























Interactive Weather Map New forecast layout! Learn more

10-Day Weather Forecast

Advertisements
Track Severe Weather on mobile